createdAt,value
2023-05-16T00:00:20.361Z,98737.16
2023-05-16T00:02:48.329Z,98735.91
2023-05-16T00:05:15.390Z,98731.94
2023-05-16T00:07:46.187Z,98725.78
2023-05-16T00:10:13.021Z,98720.47
2023-05-16T00:12:40.173Z,98720.84
2023-05-16T00:15:08.183Z,98734.00
2023-05-16T00:17:35.541Z,98725.63
2023-05-16T00:20:04.599Z,98724.97
2023-05-16T00:22:31.279Z,98731.91
2023-05-16T00:24:58.279Z,98744.69
2023-05-16T00:27:25.084Z,98745.28
2023-05-16T00:29:51.728Z,98746.72
2023-05-16T00:32:19.107Z,98745.50
2023-05-16T00:34:46.254Z,98740.81
2023-05-16T00:37:13.537Z,98745.91
2023-05-16T00:39:40.032Z,98763.13
2023-05-16T00:42:07.150Z,98771.50
2023-05-16T00:44:33.581Z,98786.63
2023-05-16T00:47:00.316Z,98788.06
2023-05-16T00:49:27.388Z,98785.78
2023-05-16T00:51:54.205Z,98780.19
2023-05-16T00:54:22.648Z,98774.53
2023-05-16T00:56:49.819Z,98756.19
2023-05-16T00:59:16.550Z,98751.88
2023-05-16T01:01:46.270Z,98739.16
2023-05-16T01:04:13.953Z,98734.22
2023-05-16T01:06:40.514Z,98737.53
2023-05-16T01:09:08.157Z,98734.22
2023-05-16T01:11:47.272Z,98735.25
2023-05-16T01:14:32.744Z,98734.16
2023-05-16T01:17:38.568Z,98719.91
2023-05-16T01:20:45.723Z,98727.44
2023-05-16T01:23:28.120Z,98717.16
2023-05-16T01:26:15.524Z,98713.78
2023-05-16T01:28:44.142Z,98715.97
2023-05-16T01:31:10.786Z,98711.56
2023-05-16T01:33:37.582Z,98700.72
2023-05-16T01:36:08.819Z,98695.25
2023-05-16T01:38:44.774Z,98703.78
2023-05-16T01:41:23.201Z,98704.09
2023-05-16T01:43:54.058Z,98702.63
2023-05-16T01:46:31.403Z,98700.50
2023-05-16T01:49:04.995Z,98688.66
2023-05-16T01:51:33.858Z,98688.66
2023-05-16T01:54:06.100Z,98689.09
2023-05-16T01:56:33.659Z,98693.59
2023-05-16T01:59:01.789Z,98698.28
2023-05-16T02:01:30.919Z,98709.50
2023-05-16T02:03:58.938Z,98713.66
2023-05-16T02:06:25.616Z,98708.03
2023-05-16T02:08:52.412Z,98709.69
2023-05-16T02:11:20.059Z,98711.97
2023-05-16T02:13:46.595Z,98713.28
2023-05-16T02:16:13.259Z,98703.06
2023-05-16T02:18:39.997Z,98705.16
2023-05-16T02:21:06.578Z,98709.00
2023-05-16T02:23:33.085Z,98712.69
2023-05-16T02:25:59.620Z,98716.53
2023-05-16T02:28:26.296Z,98719.22
2023-05-16T02:31:00.056Z,98721.63
2023-05-16T02:33:28.168Z,98716.69
2023-05-16T02:35:55.155Z,98713.81
2023-05-16T02:38:21.846Z,98712.34
2023-05-16T02:40:48.766Z,98709.97
2023-05-16T02:43:15.520Z,98705.28
2023-05-16T02:45:42.446Z,98710.84
2023-05-16T02:48:09.265Z,98712.31
2023-05-16T02:50:36.088Z,98713.41
2023-05-16T02:53:02.753Z,98722.50
2023-05-16T02:55:29.618Z,98725.97
2023-05-16T02:57:56.341Z,98733.84
2023-05-16T03:00:24.432Z,98747.78
2023-05-16T03:02:50.997Z,98756.44
2023-05-16T03:05:17.876Z,98770.41
2023-05-16T03:07:44.457Z,98778.13
2023-05-16T03:10:11.087Z,98779.69
2023-05-16T03:12:39.003Z,98785.34
2023-05-16T03:15:06.328Z,98769.72
2023-05-16T03:17:32.944Z,98768.31
2023-05-16T03:19:59.448Z,98761.16
2023-05-16T03:22:26.469Z,98750.31
2023-05-16T03:24:53.031Z,98764.28
2023-05-16T03:27:19.651Z,98751.84
2023-05-16T03:29:46.587Z,98760.59
2023-05-16T03:32:13.418Z,98757.28
2023-05-16T03:34:40.285Z,98756.31
2023-05-16T03:37:06.934Z,98751.97
2023-05-16T03:39:33.729Z,98753.25
2023-05-16T03:42:00.706Z,98748.16
2023-05-16T03:44:27.312Z,98749.69
2023-05-16T03:46:54.179Z,98751.63
2023-05-16T03:49:24.453Z,98760.81
2023-05-16T03:51:51.161Z,98773.75
2023-05-16T03:54:17.706Z,98777.19
2023-05-16T03:56:44.225Z,98791.59
2023-05-16T03:59:10.823Z,98799.97
2023-05-16T04:01:37.319Z,98792.78
2023-05-16T04:04:04.414Z,98799.72
2023-05-16T04:06:30.919Z,98799.25
2023-05-16T04:08:57.549Z,98794.84
2023-05-16T04:11:24.449Z,98801.38
2023-05-16T04:13:51.228Z,98800.34
2023-05-16T04:16:17.806Z,98793.22
2023-05-16T04:18:44.686Z,98792.75
2023-05-16T04:21:13.953Z,98798.41
2023-05-16T04:23:41.273Z,98809.56
2023-05-16T04:26:08.490Z,98816.63
2023-05-16T04:28:35.446Z,98826.34
2023-05-16T04:31:02.218Z,98841.59
2023-05-16T04:33:29.127Z,98858.66
2023-05-16T04:35:55.643Z,98861.19
2023-05-16T04:38:22.156Z,98879.75
2023-05-16T04:40:48.855Z,98899.47
2023-05-16T04:43:15.297Z,98912.03
2023-05-16T04:45:41.888Z,98914.78
2023-05-16T04:48:08.857Z,98923.47
2023-05-16T04:50:35.720Z,98927.84
2023-05-16T04:53:02.159Z,98926.31
2023-05-16T04:55:28.939Z,98946.84
2023-05-16T04:57:56.367Z,98955.28
2023-05-16T05:00:23.153Z,98956.88
2023-05-16T05:02:49.932Z,98963.13
2023-05-16T05:05:17.166Z,98957.97
2023-05-16T05:07:45.184Z,98942.72
2023-05-16T05:10:11.983Z,98931.97
2023-05-16T05:12:38.795Z,98931.88
2023-05-16T05:15:07.923Z,98934.44
2023-05-16T05:17:35.029Z,98935.41
2023-05-16T05:20:03.354Z,98948.16
2023-05-16T05:22:29.982Z,98958.66
2023-05-16T05:24:56.439Z,98953.66
2023-05-16T05:27:25.670Z,98953.81
2023-05-16T05:29:52.196Z,98953.22
2023-05-16T05:32:18.910Z,98941.75
2023-05-16T05:34:45.792Z,98932.56
2023-05-16T05:37:12.394Z,98942.81
2023-05-16T05:39:38.907Z,98947.41
2023-05-16T05:42:07.470Z,98966.38
2023-05-16T05:44:36.511Z,98973.84
2023-05-16T05:47:03.242Z,98985.31
2023-05-16T05:49:50.873Z,98993.41
2023-05-16T05:52:17.677Z,99004.81
2023-05-16T05:54:44.289Z,99015.97
2023-05-16T05:57:10.891Z,99036.41
2023-05-16T05:59:37.624Z,99043.25
2023-05-16T06:02:08.960Z,99054.78
2023-05-16T06:04:36.016Z,99069.81
2023-05-16T06:07:04.004Z,99070.81
2023-05-16T06:09:30.638Z,99073.66
2023-05-16T06:11:57.538Z,99077.53
2023-05-16T06:14:24.028Z,99076.91
2023-05-16T06:16:50.827Z,99078.91
2023-05-16T06:19:17.898Z,99080.75
2023-05-16T06:21:44.887Z,99087.75
2023-05-16T06:24:11.690Z,99088.22
2023-05-16T06:26:38.516Z,99094.03
2023-05-16T06:29:05.216Z,99097.81
2023-05-16T06:31:32.568Z,99097.88
2023-05-16T06:34:04.576Z,99096.28
2023-05-16T06:36:31.491Z,99107.47
2023-05-16T06:38:57.974Z,99100.88
2023-05-16T06:41:24.796Z,99107.50
2023-05-16T06:43:51.316Z,99111.41
2023-05-16T06:46:18.665Z,99108.13
2023-05-16T06:48:45.405Z,99105.63
2023-05-16T06:51:12.150Z,99103.63
2023-05-16T06:53:38.734Z,99114.72
2023-05-16T06:56:05.483Z,99104.16
2023-05-16T06:58:32.164Z,99101.75
2023-05-16T07:00:59.550Z,99103.06
2023-05-16T07:03:26.600Z,99105.25
2023-05-16T07:05:53.404Z,99103.75
2023-05-16T07:08:20.210Z,99105.91
2023-05-16T07:10:46.752Z,99087.41
2023-05-16T07:13:13.887Z,99080.41
2023-05-16T07:15:40.948Z,99078.56
2023-05-16T07:18:07.770Z,99072.56
2023-05-16T07:20:34.550Z,99063.91
2023-05-16T07:23:01.484Z,99082.47
2023-05-16T07:25:34.512Z,99087.22
2023-05-16T07:28:01.244Z,99093.16
2023-05-16T07:30:28.106Z,99092.38
2023-05-16T07:32:54.620Z,99105.34
2023-05-16T07:35:21.298Z,99105.56
2023-05-16T07:37:48.221Z,99113.31
2023-05-16T07:40:14.864Z,99117.84
2023-05-16T07:42:41.500Z,99119.47
2023-05-16T07:45:08.821Z,99127.34
2023-05-16T07:47:35.556Z,99128.13
2023-05-16T07:50:06.039Z,99119.28
2023-05-16T07:52:32.605Z,99122.16
2023-05-16T07:54:59.112Z,99124.00
2023-05-16T07:57:26.226Z,99115.34
2023-05-16T07:59:53.103Z,99124.81
2023-05-16T08:02:20.093Z,99106.69
2023-05-16T08:04:48.474Z,99101.09
2023-05-16T08:07:15.372Z,99101.97
2023-05-16T08:09:42.074Z,99097.63
2023-05-16T08:12:09.761Z,99086.91
2023-05-16T08:14:36.550Z,99089.41
2023-05-16T08:17:03.073Z,99082.41
2023-05-16T08:19:29.740Z,99072.13
2023-05-16T08:21:56.341Z,99067.41
2023-05-16T08:24:22.867Z,99056.47
2023-05-16T08:26:49.542Z,99050.28
2023-05-16T08:29:16.138Z,99062.66
2023-05-16T08:31:42.991Z,99059.78
2023-05-16T08:34:09.857Z,99081.84
2023-05-16T08:36:39.599Z,99098.97
2023-05-16T08:39:06.250Z,99105.50
2023-05-16T08:41:33.613Z,99113.75
2023-05-16T08:44:00.184Z,99119.94
2023-05-16T08:46:29.895Z,99125.69
2023-05-16T08:49:00.551Z,99133.94
2023-05-16T08:51:31.923Z,99150.00
2023-05-16T08:54:03.692Z,99159.50
2023-05-16T08:56:31.486Z,99161.06
2023-05-16T08:58:59.595Z,99164.19
2023-05-16T09:01:26.737Z,99176.34
2023-05-16T09:03:53.658Z,99162.13
2023-05-16T09:06:20.727Z,99164.28
2023-05-16T09:08:47.919Z,99166.59
2023-05-16T09:11:14.450Z,99171.75
2023-05-16T09:13:41.244Z,99170.03
2023-05-16T09:16:16.392Z,99166.28
2023-05-16T09:18:45.630Z,99175.75
2023-05-16T09:21:13.616Z,99171.66
2023-05-16T09:23:43.422Z,99171.47
2023-05-16T09:26:10.306Z,99171.44
2023-05-16T09:28:40.326Z,99162.53
2023-05-16T09:31:24.424Z,99170.19
2023-05-16T09:33:53.772Z,99177.28
2023-05-16T09:36:24.079Z,99177.31
2023-05-16T09:38:52.376Z,99177.56
2023-05-16T09:41:19.486Z,99184.03
2023-05-16T09:43:46.590Z,99184.47
2023-05-16T09:46:16.916Z,99181.00
2023-05-16T09:48:47.917Z,99184.16
2023-05-16T09:51:15.012Z,99182.56
2023-05-16T09:53:41.626Z,99171.06
2023-05-16T09:56:13.062Z,99173.56
2023-05-16T09:58:42.253Z,99158.38
2023-05-16T10:01:11.764Z,99138.78
2023-05-16T10:03:41.081Z,99128.69
2023-05-16T10:06:08.692Z,99117.75
2023-05-16T10:08:37.690Z,99103.47
2023-05-16T10:11:05.852Z,99080.97
2023-05-16T10:13:34.515Z,99073.94
2023-05-16T10:16:08.006Z,99037.63
2023-05-16T10:18:36.399Z,99048.78
2023-05-16T10:21:09.647Z,99068.44
2023-05-16T10:23:44.292Z,99056.03
2023-05-16T10:26:12.464Z,99037.03
2023-05-16T10:28:41.015Z,99030.84
2023-05-16T10:31:10.154Z,99015.94
2023-05-16T10:33:38.593Z,98999.72
2023-05-16T10:36:06.059Z,98996.50
2023-05-16T10:38:35.513Z,99001.94
2023-05-16T10:41:02.641Z,99034.56
2023-05-16T10:43:30.901Z,99035.38
2023-05-16T10:45:59.631Z,99032.41
2023-05-16T10:48:31.501Z,99001.50
2023-05-16T10:50:58.171Z,99046.75
2023-05-16T10:53:36.286Z,99072.16
2023-05-16T10:56:08.109Z,99090.69
2023-05-16T10:58:41.744Z,99092.56
2023-05-16T11:01:28.224Z,99065.91
2023-05-16T11:03:58.317Z,99048.19
2023-05-16T11:06:33.331Z,99081.19
2023-05-16T11:09:06.044Z,99068.75
2023-05-16T11:11:46.359Z,99061.69
2023-05-16T11:14:27.003Z,99075.56
2023-05-16T11:17:01.544Z,99072.03
2023-05-16T11:19:52.115Z,99061.94
2023-05-16T11:22:35.697Z,99097.09
2023-05-16T11:25:07.689Z,99119.81
2023-05-16T11:27:48.186Z,99134.88
2023-05-16T11:30:18.554Z,99152.41
2023-05-16T11:32:47.017Z,99153.25
2023-05-16T11:35:16.495Z,99170.56
2023-05-16T11:37:44.703Z,99135.69
2023-05-16T11:40:13.665Z,99112.78
2023-05-16T11:42:42.305Z,99123.72
2023-05-16T11:45:11.400Z,99119.16
2023-05-16T11:47:41.785Z,99110.50
2023-05-16T11:50:13.737Z,99096.50
2023-05-16T11:52:43.809Z,99110.91
2023-05-16T11:55:11.503Z,99108.44
2023-05-16T11:57:39.397Z,99125.78
2023-05-16T12:00:15.587Z,99142.50
2023-05-16T12:02:42.586Z,99160.66
2023-05-16T12:05:10.569Z,99148.28
2023-05-16T12:07:38.342Z,99169.50
2023-05-16T12:10:08.018Z,99185.59
2023-05-16T12:12:37.417Z,99256.66
2023-05-16T12:15:05.346Z,99350.56
2023-05-16T12:17:32.841Z,99429.84
2023-05-16T12:20:02.434Z,99497.28
2023-05-16T12:22:29.086Z,99546.03
2023-05-16T12:24:55.983Z,99236.72
2023-05-16T12:27:26.349Z,99225.19
2023-05-16T12:29:53.388Z,99233.66
2023-05-16T12:32:21.137Z,99222.34
2023-05-16T12:34:52.107Z,99227.03
2023-05-16T12:37:19.923Z,99230.56
2023-05-16T12:39:46.680Z,99228.53
2023-05-16T12:42:14.199Z,99227.03
2023-05-16T12:44:45.174Z,99229.47
2023-05-16T12:47:13.749Z,99226.38
2023-05-16T12:49:47.055Z,99244.94
2023-05-16T12:52:21.334Z,99243.97
2023-05-16T12:54:48.521Z,99242.09
2023-05-16T12:57:15.107Z,99240.53
2023-05-16T12:59:41.927Z,99242.91
2023-05-16T13:02:08.914Z,99234.44
2023-05-16T13:04:35.570Z,99232.09
2023-05-16T13:07:02.286Z,99235.22
2023-05-16T13:09:32.333Z,99230.09
2023-05-16T13:11:59.660Z,99212.56
2023-05-16T13:14:26.614Z,99202.47
2023-05-16T13:16:53.298Z,99218.22
2023-05-16T13:19:20.310Z,99200.09
2023-05-16T13:21:48.781Z,99199.25
2023-05-16T13:24:15.658Z,99171.19
2023-05-16T13:26:42.269Z,99152.84
2023-05-16T13:29:09.155Z,99136.94
2023-05-16T13:31:37.341Z,99156.53
2023-05-16T13:34:04.065Z,99137.75
2023-05-16T13:36:41.676Z,99140.47
2023-05-16T13:39:17.600Z,99146.44
2023-05-16T13:41:45.932Z,99147.47
2023-05-16T13:44:15.573Z,99149.94
2023-05-16T13:46:42.531Z,99127.22
2023-05-16T13:49:09.441Z,99127.03
2023-05-16T13:51:47.768Z,99144.97
2023-05-16T13:54:14.281Z,99158.81
2023-05-16T13:56:41.870Z,99169.34
2023-05-16T13:59:20.633Z,99188.50
2023-05-16T14:01:54.862Z,99208.94
2023-05-16T14:04:22.194Z,99237.56
2023-05-16T14:06:49.125Z,99231.84
2023-05-16T14:09:15.815Z,99240.13
2023-05-16T14:11:43.360Z,99223.63
2023-05-16T14:14:10.315Z,99236.94
2023-05-16T14:16:37.293Z,99248.91
2023-05-16T14:19:03.887Z,99257.94
2023-05-16T14:21:30.492Z,99258.38
2023-05-16T14:23:57.099Z,99253.28
2023-05-16T14:26:24.031Z,99238.66
2023-05-16T14:28:50.918Z,99219.44
2023-05-16T14:31:17.907Z,99214.38
2023-05-16T14:33:44.644Z,99201.41
2023-05-16T14:36:11.354Z,99192.00
2023-05-16T14:38:37.976Z,99212.72
2023-05-16T14:41:05.105Z,99205.44
2023-05-16T14:43:31.967Z,99199.97
2023-05-16T14:45:58.883Z,99219.75
2023-05-16T14:48:25.532Z,99207.25
2023-05-16T14:50:52.209Z,99216.03
2023-05-16T14:53:19.210Z,99236.00
2023-05-16T14:55:45.825Z,99241.00
2023-05-16T14:58:12.364Z,99235.69
2023-05-16T15:00:38.935Z,99214.63
2023-05-16T15:03:05.666Z,99220.38
2023-05-16T15:05:32.826Z,99238.50
2023-05-16T15:08:00.122Z,99245.16
2023-05-16T15:10:27.463Z,99228.66
2023-05-16T15:12:54.431Z,99247.63
2023-05-16T15:15:21.419Z,99248.50
2023-05-16T15:17:47.862Z,99251.78
2023-05-16T15:20:14.651Z,99261.91
2023-05-16T15:22:41.848Z,99262.19
2023-05-16T15:25:10.031Z,99280.13
2023-05-16T15:27:36.816Z,99274.44
2023-05-16T15:30:04.379Z,99296.91
2023-05-16T15:32:31.175Z,99286.53
2023-05-16T15:34:58.104Z,99294.13
2023-05-16T15:37:24.835Z,99304.84
2023-05-16T15:39:51.864Z,99318.84
2023-05-16T15:42:18.483Z,99323.97
2023-05-16T15:44:45.196Z,99328.41
2023-05-16T15:47:19.342Z,99332.94
2023-05-16T15:49:46.759Z,99352.50
2023-05-16T15:52:13.387Z,99339.50
2023-05-16T15:54:49.697Z,99342.19
2023-05-16T15:57:21.146Z,99348.81
2023-05-16T15:59:48.643Z,99307.59
2023-05-16T16:02:15.399Z,99302.50
2023-05-16T16:04:42.807Z,99284.56
2023-05-16T16:07:10.716Z,99309.53
2023-05-16T16:09:37.371Z,99270.81
2023-05-16T16:12:04.082Z,99261.88
2023-05-16T16:14:31.131Z,99244.81
2023-05-16T16:16:57.616Z,99234.09
2023-05-16T16:19:24.296Z,99236.41
2023-05-16T16:21:50.933Z,99231.66
2023-05-16T16:24:17.529Z,99219.31
2023-05-16T16:26:44.057Z,99194.56
2023-05-16T16:29:12.361Z,99206.16
2023-05-16T16:31:39.227Z,99210.91
2023-05-16T16:34:05.888Z,99207.03
2023-05-16T16:36:33.002Z,99192.59
2023-05-16T16:39:00.032Z,99180.69
2023-05-16T16:41:26.979Z,99172.03
2023-05-16T16:43:53.603Z,99155.50
2023-05-16T16:46:21.145Z,99162.75
2023-05-16T16:48:49.117Z,99145.03
2023-05-16T16:51:15.678Z,99157.22
2023-05-16T16:53:42.699Z,99172.06
2023-05-16T16:56:14.060Z,99177.00
2023-05-16T16:58:40.953Z,99121.97
2023-05-16T17:01:07.857Z,99088.03
2023-05-16T17:03:34.963Z,99055.03
2023-05-16T17:06:01.714Z,99038.34
2023-05-16T17:08:28.208Z,99019.81
2023-05-16T17:11:07.222Z,98989.09
2023-05-16T17:13:33.859Z,99000.22
2023-05-16T17:16:01.275Z,98966.69
2023-05-16T17:18:29.151Z,98959.88
2023-05-16T17:20:55.665Z,98951.84
2023-05-16T17:23:23.011Z,98947.50
2023-05-16T17:25:49.990Z,98943.00
2023-05-16T17:28:17.483Z,98947.31
2023-05-16T17:30:45.239Z,98969.34
2023-05-16T17:33:11.845Z,98961.75
2023-05-16T17:35:38.898Z,98956.38
2023-05-16T17:38:05.481Z,98937.84
2023-05-16T17:40:32.326Z,98933.31
2023-05-16T17:42:59.246Z,98922.00
2023-05-16T17:45:26.113Z,98930.84
2023-05-16T17:47:54.942Z,98925.28
2023-05-16T17:50:21.798Z,98928.56
2023-05-16T17:52:48.533Z,98921.78
2023-05-16T17:55:15.327Z,98922.81
2023-05-16T17:57:42.981Z,98923.63
2023-05-16T18:00:10.235Z,98928.34
2023-05-16T18:02:38.560Z,98932.06
2023-05-16T18:05:06.989Z,98948.75
2023-05-16T18:07:36.188Z,98937.00
2023-05-16T18:10:02.886Z,98938.66
2023-05-16T18:12:29.876Z,98938.47
2023-05-16T18:14:56.776Z,98952.44
2023-05-16T18:17:23.457Z,98940.09
2023-05-16T18:19:50.021Z,98937.00
2023-05-16T18:22:17.823Z,98948.75
2023-05-16T18:24:44.593Z,98964.81
2023-05-16T18:27:11.290Z,98972.00
2023-05-16T18:29:37.862Z,98969.72
2023-05-16T18:32:04.869Z,99002.63
2023-05-16T18:34:40.517Z,99048.75
2023-05-16T18:37:08.084Z,99096.25
2023-05-16T18:39:34.834Z,99125.22
2023-05-16T18:42:02.101Z,99158.06
2023-05-16T18:44:30.101Z,99179.59
2023-05-16T18:46:58.939Z,99194.09
2023-05-16T18:49:25.967Z,99201.91
2023-05-16T18:51:52.473Z,99215.72
2023-05-16T18:54:24.776Z,99263.00
2023-05-16T18:56:53.710Z,99279.34
2023-05-16T18:59:21.360Z,99294.91
2023-05-16T19:01:48.326Z,99288.66
2023-05-16T19:04:15.483Z,99311.34
2023-05-16T19:06:42.032Z,99324.44
2023-05-16T19:09:08.992Z,99333.63
2023-05-16T19:11:36.568Z,99337.38
2023-05-16T19:14:05.076Z,99334.63
2023-05-16T19:16:31.959Z,99338.59
2023-05-16T19:19:05.690Z,99333.97
2023-05-16T19:21:32.965Z,99348.22
2023-05-16T19:23:59.775Z,99373.31
2023-05-16T19:26:27.219Z,99380.97
2023-05-16T19:28:55.247Z,99366.59
2023-05-16T19:31:22.034Z,99376.25
2023-05-16T19:33:49.972Z,99377.06
2023-05-16T19:36:16.843Z,99414.94
2023-05-16T19:38:44.476Z,99443.47
2023-05-16T19:41:11.262Z,99453.31
2023-05-16T19:43:37.800Z,99436.34
2023-05-16T19:46:04.484Z,99441.19
2023-05-16T19:48:31.563Z,99460.22
2023-05-16T19:50:58.342Z,99464.13
2023-05-16T19:53:25.184Z,99478.47
2023-05-16T19:55:51.756Z,99486.16
2023-05-16T19:58:18.649Z,99472.50
2023-05-16T20:00:45.372Z,99413.78
2023-05-16T20:03:12.511Z,99428.16
2023-05-16T20:05:39.390Z,99389.44
2023-05-16T20:08:06.089Z,99384.75
2023-05-16T20:10:32.902Z,99347.56
2023-05-16T20:13:01.496Z,99269.63
2023-05-16T20:15:28.232Z,99324.88
2023-05-16T20:17:55.073Z,99312.09
2023-05-16T20:20:21.958Z,99351.16
2023-05-16T20:22:48.465Z,99385.19
2023-05-16T20:25:14.986Z,99402.22
2023-05-16T20:27:43.783Z,99404.56
2023-05-16T20:30:10.728Z,99410.09
2023-05-16T20:32:37.438Z,99413.31
2023-05-16T20:35:04.342Z,99429.66
2023-05-16T20:37:30.861Z,99439.34
2023-05-16T20:39:57.763Z,99448.31
2023-05-16T20:42:24.244Z,99468.84
2023-05-16T20:44:52.174Z,99453.38
2023-05-16T20:47:18.871Z,99447.84
2023-05-16T20:49:45.684Z,99464.72
2023-05-16T20:52:13.351Z,99464.09
2023-05-16T20:54:41.340Z,99489.72
2023-05-16T20:57:08.084Z,99495.03
2023-05-16T20:59:34.516Z,99501.88
2023-05-16T21:02:00.980Z,99492.38
2023-05-16T21:04:27.531Z,99496.53
2023-05-16T21:06:54.367Z,99464.09
2023-05-16T21:09:21.317Z,99462.41
2023-05-16T21:11:47.941Z,99477.91
2023-05-16T21:14:15.251Z,99482.72
2023-05-16T21:16:42.249Z,99483.06
2023-05-16T21:19:08.792Z,99481.72
2023-05-16T21:21:35.828Z,99495.03
2023-05-16T21:24:02.711Z,99481.38
2023-05-16T21:26:30.756Z,99479.38
2023-05-16T21:28:57.290Z,99484.19
2023-05-16T21:31:24.164Z,99485.59
2023-05-16T21:33:50.929Z,99488.41
2023-05-16T21:36:18.826Z,99487.91
2023-05-16T21:38:45.394Z,99485.72
2023-05-16T21:41:12.014Z,99475.56
2023-05-16T21:43:38.809Z,99477.06
2023-05-16T21:46:05.423Z,99484.72
2023-05-16T21:48:32.146Z,99486.38
2023-05-16T21:50:58.782Z,99494.56
2023-05-16T21:53:25.367Z,99507.84
2023-05-16T21:55:51.866Z,99533.47
2023-05-16T21:58:18.612Z,99542.25
2023-05-16T22:00:45.529Z,99543.59
2023-05-16T22:03:13.004Z,99537.59
2023-05-16T22:05:39.685Z,99541.41
2023-05-16T22:08:06.317Z,99535.53
2023-05-16T22:10:34.840Z,99534.03
2023-05-16T22:13:01.453Z,99541.53
2023-05-16T22:16:03.450Z,99550.81
2023-05-16T22:18:31.005Z,99529.06
2023-05-16T22:20:59.393Z,99496.13
2023-05-16T22:23:25.993Z,99491.81
2023-05-16T22:25:52.603Z,99493.47
2023-05-16T22:28:19.996Z,99486.28
2023-05-16T22:30:46.572Z,99472.03
2023-05-16T22:33:13.176Z,99473.31
2023-05-16T22:35:40.196Z,99444.72
2023-05-16T22:38:06.736Z,99438.09
2023-05-16T22:40:33.346Z,99441.41
2023-05-16T22:43:00.205Z,99430.13
2023-05-16T22:45:26.785Z,99427.59
2023-05-16T22:47:54.597Z,99459.13
2023-05-16T22:50:21.730Z,99477.22
2023-05-16T22:52:48.626Z,99478.50
2023-05-16T22:55:16.217Z,99475.72
2023-05-16T22:57:43.035Z,99491.75
2023-05-16T23:00:12.669Z,99530.59
2023-05-16T23:02:39.647Z,99547.31
2023-05-16T23:05:06.749Z,99535.31
2023-05-16T23:07:33.385Z,99547.19
2023-05-16T23:09:59.930Z,99578.84
2023-05-16T23:12:26.732Z,99583.59
2023-05-16T23:14:53.739Z,99600.34
2023-05-16T23:17:20.147Z,99572.66
2023-05-16T23:19:47.065Z,99567.28
2023-05-16T23:22:13.639Z,99554.44
2023-05-16T23:24:40.557Z,99548.78
2023-05-16T23:27:07.385Z,99560.38
2023-05-16T23:29:34.153Z,99579.25
2023-05-16T23:32:00.684Z,99587.38
2023-05-16T23:34:27.505Z,99593.69
2023-05-16T23:36:54.311Z,99607.50
2023-05-16T23:39:20.816Z,99602.63
2023-05-16T23:41:47.384Z,99618.53
2023-05-16T23:44:15.431Z,99606.28
2023-05-16T23:46:41.971Z,99602.09
2023-05-16T23:49:08.487Z,99625.91
2023-05-16T23:51:48.706Z,99635.84
2023-05-16T23:54:21.671Z,99619.91
2023-05-16T23:56:48.904Z,99613.25
2023-05-16T23:59:15.440Z,99607.78
